createdAt,value
2023-03-01T00:00:20.329Z,17.65
2023-03-01T00:00:47.880Z,18.08
2023-03-01T00:01:12.033Z,18.65
2023-03-01T00:01:34.884Z,17.58
2023-03-01T00:01:59.085Z,17.85
2023-03-01T00:02:21.927Z,17.92
2023-03-01T00:02:44.765Z,18.75
2023-03-01T00:03:07.637Z,18.15
2023-03-01T00:03:30.548Z,17.42
2023-03-01T00:03:53.582Z,17.67
2023-03-01T00:04:16.443Z,18.00
2023-03-01T00:04:39.199Z,17.48
2023-03-01T00:05:01.991Z,17.75
2023-03-01T00:05:26.237Z,17.70
2023-03-01T00:05:49.029Z,18.05
2023-03-01T00:06:11.763Z,17.80
2023-03-01T00:06:34.549Z,17.00
2023-03-01T00:06:57.266Z,18.33
2023-03-01T00:07:20.053Z,17.92
2023-03-01T00:07:42.800Z,17.40
2023-03-01T00:08:05.742Z,16.42
2023-03-01T00:08:28.542Z,18.02
2023-03-01T00:08:51.260Z,18.48
2023-03-01T00:09:14.082Z,17.80
2023-03-01T00:09:37.858Z,17.63
2023-03-01T00:10:00.530Z,17.92
2023-03-01T00:10:23.258Z,17.73
2023-03-01T00:10:46.036Z,17.85
2023-03-01T00:11:10.200Z,17.85
2023-03-01T00:11:34.158Z,18.30
2023-03-01T00:11:57.209Z,18.60
2023-03-01T00:12:19.899Z,18.63
2023-03-01T00:12:45.559Z,17.75
2023-03-01T00:13:08.404Z,18.67
2023-03-01T00:13:31.118Z,18.15
2023-03-01T00:13:54.643Z,18.45
2023-03-01T00:14:18.757Z,17.75
2023-03-01T00:14:41.453Z,18.38
2023-03-01T00:15:05.923Z,17.55
2023-03-01T00:15:28.716Z,18.45
2023-03-01T00:15:51.443Z,18.23
2023-03-01T00:16:15.952Z,18.08
2023-03-01T00:16:40.619Z,18.17
2023-03-01T00:17:03.651Z,17.83
2023-03-01T00:17:26.458Z,18.08
2023-03-01T00:17:49.185Z,18.38
2023-03-01T00:18:11.924Z,19.13
2023-03-01T00:18:34.667Z,17.88
2023-03-01T00:18:57.435Z,18.80
2023-03-01T00:19:20.873Z,18.02
2023-03-01T00:19:43.783Z,17.85
2023-03-01T00:20:11.377Z,17.65
2023-03-01T00:20:35.525Z,17.30
2023-03-01T00:20:58.374Z,17.40
2023-03-01T00:21:21.931Z,17.77
2023-03-01T00:21:44.641Z,17.45
2023-03-01T00:22:07.368Z,17.75
2023-03-01T00:22:30.063Z,18.10
2023-03-01T00:22:52.759Z,17.67
2023-03-01T00:23:15.459Z,17.83
2023-03-01T00:23:38.276Z,17.65
2023-03-01T00:24:01.068Z,17.75
2023-03-01T00:24:23.846Z,17.60
2023-03-01T00:24:46.728Z,18.23
2023-03-01T00:25:10.594Z,18.95
2023-03-01T00:25:33.275Z,18.13
2023-03-01T00:25:56.041Z,17.20
2023-03-01T00:26:19.148Z,18.13
2023-03-01T00:26:42.192Z,18.38
2023-03-01T00:27:04.949Z,17.75
2023-03-01T00:27:27.874Z,18.10
2023-03-01T00:27:50.795Z,18.50
2023-03-01T00:28:13.615Z,17.77
2023-03-01T00:28:36.360Z,17.75
2023-03-01T00:28:59.319Z,18.13
2023-03-01T00:29:22.191Z,18.08
2023-03-01T00:29:45.030Z,18.42
2023-03-01T00:30:09.755Z,18.45
2023-03-01T00:30:32.532Z,18.75
2023-03-01T00:30:55.337Z,17.73
2023-03-01T00:31:19.685Z,17.65
2023-03-01T00:31:42.337Z,17.83
2023-03-01T00:32:05.365Z,18.25
2023-03-01T00:32:28.082Z,18.00
2023-03-01T00:32:50.752Z,17.70
2023-03-01T00:33:13.465Z,17.63
2023-03-01T00:33:36.172Z,17.48
2023-03-01T00:34:01.388Z,17.63
2023-03-01T00:34:24.119Z,18.30
2023-03-01T00:34:55.219Z,18.08
2023-03-01T00:35:18.009Z,18.00
2023-03-01T00:35:42.290Z,18.02
2023-03-01T00:36:05.940Z,18.10
2023-03-01T00:36:30.404Z,18.05
2023-03-01T00:36:53.339Z,17.92
2023-03-01T00:37:16.007Z,17.60
2023-03-01T00:37:38.722Z,18.70
2023-03-01T00:38:01.572Z,17.77
2023-03-01T00:38:24.299Z,17.90
2023-03-01T00:38:47.145Z,17.55
2023-03-01T00:39:13.377Z,17.48
2023-03-01T00:39:36.107Z,17.38
2023-03-01T00:39:58.817Z,17.65
2023-03-01T00:40:21.604Z,18.02
2023-03-01T00:40:45.022Z,17.90
2023-03-01T00:41:07.814Z,17.50
2023-03-01T00:41:30.568Z,18.05
2023-03-01T00:41:53.263Z,18.15
2023-03-01T00:42:16.113Z,17.95
2023-03-01T00:42:39.539Z,18.48
2023-03-01T00:43:02.374Z,18.42
2023-03-01T00:43:25.075Z,18.45
2023-03-01T00:43:48.010Z,18.55
2023-03-01T00:44:10.740Z,18.25
2023-03-01T00:44:33.558Z,17.73
2023-03-01T00:44:56.284Z,18.38
2023-03-01T00:45:19.044Z,19.02
2023-03-01T00:45:41.804Z,18.42
2023-03-01T00:46:05.339Z,18.73
2023-03-01T00:46:28.312Z,18.52
2023-03-01T00:46:51.463Z,18.70
2023-03-01T00:47:15.106Z,18.65
2023-03-01T00:47:37.827Z,18.75
2023-03-01T00:48:00.802Z,18.10
2023-03-01T00:48:23.558Z,18.60
2023-03-01T00:48:46.343Z,19.02
2023-03-01T00:49:09.076Z,18.67
2023-03-01T00:49:31.969Z,19.25
2023-03-01T00:49:54.628Z,18.23
2023-03-01T00:50:17.708Z,18.83
2023-03-01T00:50:41.899Z,18.15
2023-03-01T00:51:08.759Z,18.52
2023-03-01T00:51:31.707Z,18.85
2023-03-01T00:51:54.827Z,18.38
2023-03-01T00:52:17.644Z,18.75
2023-03-01T00:52:40.908Z,18.35
2023-03-01T00:53:03.650Z,18.63
2023-03-01T00:53:26.333Z,18.58
2023-03-01T00:53:51.962Z,18.42
2023-03-01T00:54:14.635Z,18.48
2023-03-01T00:54:37.350Z,17.92
2023-03-01T00:55:00.091Z,18.70
2023-03-01T00:55:22.780Z,19.10
2023-03-01T00:55:45.570Z,18.27
2023-03-01T00:56:09.633Z,18.50
2023-03-01T00:56:32.889Z,17.77
2023-03-01T00:56:55.870Z,18.27
2023-03-01T00:57:18.610Z,18.17
2023-03-01T00:57:41.341Z,18.60
2023-03-01T00:58:04.115Z,18.65
2023-03-01T00:58:28.005Z,18.45
2023-03-01T00:58:50.859Z,18.38
2023-03-01T00:59:13.592Z,18.17
2023-03-01T00:59:36.410Z,18.50
2023-03-01T00:59:59.139Z,17.88
2023-03-01T01:00:22.419Z,18.10
2023-03-01T01:00:45.110Z,18.60
2023-03-01T01:01:18.310Z,18.77
2023-03-01T01:01:41.387Z,18.35
2023-03-01T01:02:04.056Z,17.88
2023-03-01T01:02:26.834Z,17.80
2023-03-01T01:02:50.615Z,18.70
2023-03-01T01:03:13.389Z,17.95
2023-03-01T01:03:36.184Z,17.85
2023-03-01T01:04:00.323Z,18.60
2023-03-01T01:04:23.919Z,18.60
2023-03-01T01:04:46.635Z,18.63
2023-03-01T01:05:09.707Z,18.73
2023-03-01T01:05:32.377Z,18.60
2023-03-01T01:05:56.664Z,19.73
2023-03-01T01:06:20.904Z,19.13
2023-03-01T01:06:44.656Z,18.33
2023-03-01T01:07:08.640Z,18.15
2023-03-01T01:07:31.485Z,18.00
2023-03-01T01:07:54.313Z,18.35
2023-03-01T01:08:17.090Z,18.48
2023-03-01T01:08:39.849Z,18.02
2023-03-01T01:09:02.666Z,18.33
2023-03-01T01:09:25.379Z,18.60
2023-03-01T01:09:48.125Z,18.58
2023-03-01T01:10:18.170Z,18.45
2023-03-01T01:10:40.978Z,18.40
2023-03-01T01:11:03.797Z,18.27
2023-03-01T01:11:27.743Z,18.20
2023-03-01T01:11:51.358Z,18.65
2023-03-01T01:12:14.170Z,18.05
2023-03-01T01:12:37.042Z,17.60
2023-03-01T01:12:59.729Z,18.05
2023-03-01T01:13:22.762Z,18.40
2023-03-01T01:13:46.263Z,18.25
2023-03-01T01:14:09.059Z,18.60
2023-03-01T01:14:31.872Z,18.65
2023-03-01T01:14:54.663Z,18.52
2023-03-01T01:15:17.670Z,18.58
2023-03-01T01:15:40.517Z,18.85
2023-03-01T01:16:03.535Z,18.70
2023-03-01T01:16:27.203Z,18.38
2023-03-01T01:16:50.058Z,18.13
2023-03-01T01:17:12.797Z,18.65
2023-03-01T01:17:35.523Z,18.85
2023-03-01T01:17:58.277Z,18.55
2023-03-01T01:18:21.034Z,18.58
2023-03-01T01:18:43.854Z,19.20
2023-03-01T01:19:06.703Z,19.02
2023-03-01T01:19:29.437Z,19.00
2023-03-01T01:19:53.299Z,19.00
2023-03-01T01:20:16.175Z,18.35
2023-03-01T01:20:38.923Z,18.40
2023-03-01T01:21:07.077Z,19.30
2023-03-01T01:21:32.963Z,18.38
2023-03-01T01:21:55.667Z,18.70
2023-03-01T01:22:18.404Z,18.33
2023-03-01T01:22:41.215Z,17.77
2023-03-01T01:24:25.413Z,19.00
2023-03-01T01:24:48.178Z,19.15
2023-03-01T01:25:11.768Z,19.30
2023-03-01T01:25:37.189Z,19.98
2023-03-01T01:26:05.278Z,18.65
2023-03-01T01:26:29.482Z,19.55
2023-03-01T01:26:52.650Z,19.65
2023-03-01T01:27:15.363Z,19.08
2023-03-01T01:27:38.163Z,19.50
2023-03-01T01:28:00.811Z,19.60
2023-03-01T01:28:23.517Z,20.05
2023-03-01T01:28:46.563Z,19.63
2023-03-01T01:29:09.507Z,19.85
2023-03-01T01:29:32.237Z,18.65
2023-03-01T01:29:55.034Z,18.63
2023-03-01T01:30:18.422Z,19.20
2023-03-01T01:30:41.272Z,19.05
2023-03-01T01:31:04.271Z,19.42
2023-03-01T01:31:27.183Z,19.95
2023-03-01T01:31:49.994Z,19.17
2023-03-01T01:32:12.818Z,19.33
2023-03-01T01:32:35.642Z,19.40
2023-03-01T01:32:58.366Z,19.00
2023-03-01T01:33:21.123Z,19.70
2023-03-01T01:33:43.854Z,18.90
2023-03-01T01:34:08.050Z,19.95
2023-03-01T01:34:30.863Z,19.13
2023-03-01T01:34:53.609Z,19.10
2023-03-01T01:35:16.478Z,19.20
2023-03-01T01:35:39.785Z,19.35
2023-03-01T01:36:02.495Z,19.65
2023-03-01T01:36:26.659Z,20.08
2023-03-01T01:36:49.923Z,18.80
2023-03-01T01:37:12.687Z,19.35
2023-03-01T01:37:35.496Z,20.05
2023-03-01T01:37:58.242Z,19.40
2023-03-01T01:38:22.596Z,20.15
2023-03-01T01:38:45.441Z,19.88
2023-03-01T01:39:08.457Z,19.52
2023-03-01T01:39:31.243Z,19.15
2023-03-01T01:39:53.927Z,19.73
2023-03-01T01:40:16.782Z,19.60
2023-03-01T01:40:44.967Z,19.85
2023-03-01T01:41:07.993Z,18.23
2023-03-01T01:41:30.712Z,18.35
2023-03-01T01:41:53.441Z,19.13
2023-03-01T01:42:16.867Z,19.15
2023-03-01T01:42:39.567Z,19.25
2023-03-01T01:43:02.258Z,18.75
2023-03-01T01:43:26.556Z,19.38
2023-03-01T01:44:06.587Z,19.05
2023-03-01T01:44:29.645Z,18.23
2023-03-01T01:45:25.647Z,18.50
2023-03-01T01:45:48.739Z,18.50
2023-03-01T01:46:17.296Z,18.45
2023-03-01T01:46:43.002Z,18.55
2023-03-01T01:47:06.566Z,18.73
2023-03-01T01:47:29.350Z,18.58
2023-03-01T01:47:52.207Z,18.58
2023-03-01T01:48:17.607Z,19.02
2023-03-01T01:48:42.780Z,19.02
2023-03-01T01:49:06.924Z,18.40
2023-03-01T01:49:34.794Z,18.30
2023-03-01T01:49:58.543Z,19.10
2023-03-01T01:50:21.412Z,18.10
2023-03-01T01:50:46.097Z,18.25
2023-03-01T01:51:12.161Z,17.88
2023-03-01T01:51:41.998Z,17.45
2023-03-01T01:52:09.912Z,17.13
2023-03-01T01:52:35.207Z,18.27
2023-03-01T01:52:57.937Z,17.83
2023-03-01T01:53:20.586Z,17.53
2023-03-01T01:53:43.366Z,17.80
2023-03-01T01:54:09.332Z,18.77
2023-03-01T01:54:36.531Z,17.90
2023-03-01T01:55:01.314Z,17.95
2023-03-01T01:55:25.151Z,18.50
2023-03-01T01:55:50.521Z,17.83
2023-03-01T01:56:13.358Z,17.23
2023-03-01T01:56:36.053Z,17.88
2023-03-01T01:57:01.616Z,18.20
2023-03-01T01:57:29.111Z,17.70
2023-03-01T01:57:54.201Z,17.60
2023-03-01T01:58:19.301Z,18.13
2023-03-01T01:58:42.091Z,17.42
2023-03-01T01:59:04.800Z,18.13
2023-03-01T01:59:27.914Z,18.00
2023-03-01T01:59:52.307Z,17.70
2023-03-01T02:00:16.761Z,18.10
2023-03-01T02:00:40.190Z,18.02
2023-03-01T02:01:04.171Z,18.80
2023-03-01T02:01:27.278Z,18.50
2023-03-01T02:01:49.991Z,17.38
2023-03-01T02:02:12.776Z,18.15
2023-03-01T02:02:35.601Z,18.83
2023-03-01T02:03:01.471Z,18.38
2023-03-01T02:03:25.842Z,18.02
2023-03-01T02:03:49.001Z,17.40
2023-03-01T02:04:11.756Z,17.65
2023-03-01T02:04:34.655Z,17.65
2023-03-01T02:05:04.790Z,17.48
2023-03-01T02:05:29.971Z,18.35
2023-03-01T02:05:55.766Z,18.58
2023-03-01T02:06:22.739Z,17.83
2023-03-01T02:06:49.371Z,18.48
2023-03-01T02:07:16.173Z,18.40
2023-03-01T02:07:39.351Z,17.85
2023-03-01T02:08:02.091Z,17.63
2023-03-01T02:08:26.550Z,17.60
2023-03-01T02:08:50.092Z,18.92
2023-03-01T02:09:14.568Z,19.15
2023-03-01T02:09:37.346Z,18.38
2023-03-01T02:10:00.087Z,18.50
2023-03-01T02:10:22.891Z,18.45
2023-03-01T02:10:45.636Z,18.20
2023-03-01T02:11:08.487Z,18.00
2023-03-01T02:11:31.446Z,17.83
2023-03-01T02:11:54.251Z,18.10
2023-03-01T02:12:19.213Z,17.58
2023-03-01T02:12:42.075Z,18.38
2023-03-01T02:13:04.858Z,17.80
2023-03-01T02:13:27.614Z,18.05
2023-03-01T02:13:50.388Z,18.45
2023-03-01T02:14:13.147Z,18.40
2023-03-01T02:14:36.126Z,18.27
2023-03-01T02:14:58.926Z,17.42
2023-03-01T02:15:21.725Z,17.33
2023-03-01T02:15:47.306Z,17.50
2023-03-01T02:16:10.800Z,18.13
2023-03-01T02:16:34.053Z,18.38
2023-03-01T02:16:57.126Z,17.83
2023-03-01T02:17:19.837Z,17.63
2023-03-01T02:17:42.652Z,18.23
2023-03-01T02:18:05.366Z,18.83
2023-03-01T02:18:28.289Z,18.00
2023-03-01T02:18:51.036Z,18.00
2023-03-01T02:19:18.070Z,17.52
2023-03-01T02:19:47.866Z,17.42
2023-03-01T02:20:16.983Z,17.70
2023-03-01T02:20:44.787Z,17.90
2023-03-01T02:21:32.177Z,17.55
2023-03-01T02:21:59.428Z,18.08
2023-03-01T02:22:24.470Z,17.30
2023-03-01T02:22:47.288Z,18.05
2023-03-01T02:23:10.054Z,18.13
2023-03-01T02:23:32.820Z,17.60
2023-03-01T02:23:56.981Z,17.77
2023-03-01T02:24:24.761Z,17.50
2023-03-01T02:24:51.363Z,17.65
2023-03-01T02:25:24.560Z,17.33
2023-03-01T02:25:50.447Z,17.50
2023-03-01T02:26:16.623Z,18.17
2023-03-01T02:26:42.748Z,16.52
2023-03-01T02:27:05.526Z,17.05
2023-03-01T02:27:32.168Z,17.92
2023-03-01T02:27:58.581Z,17.55
2023-03-01T02:28:26.777Z,17.30
2023-03-01T02:28:49.510Z,17.85
2023-03-01T02:29:12.289Z,17.75
2023-03-01T02:29:35.054Z,17.77
2023-03-01T02:29:57.887Z,17.50
2023-03-01T02:30:20.908Z,18.20
2023-03-01T02:31:03.757Z,17.88
2023-03-01T02:31:45.006Z,17.65
2023-03-01T02:32:07.843Z,17.58
2023-03-01T02:32:30.607Z,16.95
2023-03-01T02:32:54.514Z,17.13
2023-03-01T02:33:17.293Z,16.95
2023-03-01T02:33:40.058Z,17.77
2023-03-01T02:34:05.656Z,17.50
2023-03-01T02:34:28.461Z,17.67
2023-03-01T02:34:51.327Z,17.33
2023-03-01T02:35:15.587Z,17.40
2023-03-01T02:35:39.354Z,17.85
2023-03-01T02:36:02.725Z,17.80
2023-03-01T02:36:27.932Z,18.00
2023-03-01T02:36:52.527Z,17.23
2023-03-01T02:37:16.036Z,17.23
2023-03-01T02:37:39.002Z,17.98
2023-03-01T02:38:02.514Z,17.25
2023-03-01T02:38:25.245Z,17.77
2023-03-01T02:38:48.322Z,17.38
2023-03-01T02:39:15.479Z,17.10
2023-03-01T02:39:43.026Z,16.83
2023-03-01T02:40:12.652Z,17.02
2023-03-01T02:40:35.362Z,17.77
2023-03-01T02:40:58.216Z,17.80
2023-03-01T02:41:21.122Z,17.35
2023-03-01T02:41:45.781Z,17.25
2023-03-01T02:42:08.580Z,16.65
2023-03-01T02:42:34.442Z,16.50
2023-03-01T02:42:59.418Z,17.10
2023-03-01T02:43:22.352Z,16.83
2023-03-01T02:43:46.653Z,17.20
2023-03-01T02:44:09.611Z,17.45
2023-03-01T02:44:32.411Z,17.23
2023-03-01T02:44:55.153Z,16.70
2023-03-01T02:45:17.982Z,17.25
2023-03-01T02:45:48.955Z,17.10
2023-03-01T02:46:16.264Z,16.92
2023-03-01T02:46:44.377Z,17.30
2023-03-01T02:47:07.295Z,17.00
2023-03-01T02:47:31.037Z,17.25
2023-03-01T02:47:55.459Z,17.80
2023-03-01T02:48:18.297Z,17.05
2023-03-01T02:48:42.801Z,16.83
2023-03-01T02:49:19.685Z,16.80
2023-03-01T02:49:42.493Z,16.70
2023-03-01T02:50:12.642Z,16.85
2023-03-01T02:50:55.527Z,17.33
2023-03-01T02:51:29.132Z,16.98
2023-03-01T02:52:05.602Z,17.45
2023-03-01T02:52:46.302Z,16.65
2023-03-01T02:53:10.746Z,17.20
2023-03-01T02:53:39.240Z,17.73
2023-03-01T02:54:11.817Z,17.50
2023-03-01T02:54:37.758Z,16.85
2023-03-01T02:55:02.111Z,16.80
2023-03-01T02:55:24.999Z,17.02
2023-03-01T02:55:47.680Z,16.80
2023-03-01T02:56:13.973Z,17.13
2023-03-01T02:56:36.832Z,17.70
2023-03-01T02:56:59.606Z,16.73
2023-03-01T02:57:23.066Z,16.55
2023-03-01T02:57:46.578Z,16.65
2023-03-01T02:58:09.287Z,16.58
2023-03-01T02:58:32.128Z,17.33
2023-03-01T02:58:56.328Z,17.85
2023-03-01T02:59:20.803Z,17.02
2023-03-01T02:59:43.884Z,16.50
2023-03-01T03:00:08.480Z,16.60
2023-03-01T03:00:34.332Z,17.50
2023-03-01T03:00:57.087Z,17.77
2023-03-01T03:01:19.918Z,17.67
2023-03-01T03:01:43.051Z,16.60
2023-03-01T03:02:05.867Z,17.05
2023-03-01T03:02:39.664Z,17.30
2023-03-01T03:03:02.565Z,18.30
2023-03-01T03:03:25.354Z,17.95
2023-03-01T03:03:48.195Z,17.88
2023-03-01T03:04:12.539Z,17.85
2023-03-01T03:04:35.358Z,18.30
2023-03-01T03:04:58.104Z,18.20
2023-03-01T03:05:21.927Z,17.80
2023-03-01T03:05:44.643Z,17.25
2023-03-01T03:06:07.525Z,17.77
2023-03-01T03:06:30.831Z,17.98
2023-03-01T03:06:53.968Z,17.77
2023-03-01T03:07:16.888Z,18.20
2023-03-01T03:07:41.203Z,18.45
2023-03-01T03:08:04.479Z,18.67
2023-03-01T03:08:27.746Z,18.52
2023-03-01T03:08:50.619Z,17.55
2023-03-01T03:09:15.844Z,17.40
2023-03-01T03:09:39.433Z,18.30
2023-03-01T03:10:02.261Z,19.00
2023-03-01T03:10:26.284Z,18.60
2023-03-01T03:10:51.904Z,18.17
2023-03-01T03:11:14.525Z,18.48
2023-03-01T03:11:37.994Z,17.75
2023-03-01T03:12:00.808Z,18.05
2023-03-01T03:12:26.100Z,18.55
2023-03-01T03:12:52.908Z,18.80
2023-03-01T03:13:15.800Z,18.58
2023-03-01T03:13:39.382Z,18.88
2023-03-01T03:14:03.609Z,18.00
2023-03-01T03:14:26.364Z,18.15
2023-03-01T03:14:49.109Z,18.35
2023-03-01T03:15:13.934Z,17.65
2023-03-01T03:15:37.160Z,17.75
2023-03-01T03:16:00.055Z,18.67
2023-03-01T03:16:22.938Z,19.17
2023-03-01T03:16:46.729Z,18.05
2023-03-01T03:17:09.599Z,18.17
2023-03-01T03:17:32.329Z,18.52
2023-03-01T03:17:55.288Z,18.25
2023-03-01T03:18:18.179Z,18.67
2023-03-01T03:18:40.864Z,18.23
2023-03-01T03:19:06.071Z,19.10
2023-03-01T03:19:29.082Z,18.60
2023-03-01T03:19:51.878Z,18.38
2023-03-01T03:20:20.279Z,18.15
2023-03-01T03:20:43.775Z,19.17
2023-03-01T03:21:11.420Z,18.25
2023-03-01T03:21:34.248Z,17.58
2023-03-01T03:21:57.003Z,17.75
2023-03-01T03:22:19.703Z,18.83
2023-03-01T03:22:42.400Z,18.40
2023-03-01T03:23:05.182Z,18.25
2023-03-01T03:23:28.005Z,18.67
2023-03-01T03:23:50.791Z,18.92
2023-03-01T03:24:13.624Z,19.30
2023-03-01T03:24:39.458Z,19.23
2023-03-01T03:25:02.333Z,18.50
2023-03-01T03:25:25.890Z,18.30
2023-03-01T03:25:49.895Z,18.58
2023-03-01T03:26:14.420Z,18.55
2023-03-01T03:26:37.196Z,19.20
2023-03-01T03:26:59.937Z,19.45
2023-03-01T03:27:22.613Z,18.70
2023-03-01T03:27:46.404Z,18.50
2023-03-01T03:28:12.056Z,18.48
2023-03-01T03:28:35.168Z,18.13
2023-03-01T03:28:58.213Z,18.00
2023-03-01T03:29:22.457Z,17.95
2023-03-01T03:29:45.131Z,18.13
2023-03-01T03:30:10.575Z,18.98
2023-03-01T03:30:33.320Z,18.27
2023-03-01T03:30:56.079Z,17.60
2023-03-01T03:31:18.920Z,17.67
2023-03-01T03:31:41.732Z,17.48
2023-03-01T03:32:04.989Z,17.95
2023-03-01T03:32:28.035Z,18.50
2023-03-01T03:32:53.578Z,17.83
2023-03-01T03:33:16.331Z,18.42
2023-03-01T03:33:39.386Z,18.10
2023-03-01T03:34:02.094Z,17.65
2023-03-01T03:34:24.826Z,16.88
2023-03-01T03:34:47.492Z,17.02
2023-03-01T03:35:11.156Z,17.35
2023-03-01T03:35:34.931Z,17.10
2023-03-01T03:35:57.720Z,17.55
2023-03-01T03:36:24.177Z,17.73
2023-03-01T03:36:46.919Z,17.65
2023-03-01T03:37:29.646Z,17.63
2023-03-01T03:38:04.623Z,17.23
2023-03-01T03:38:27.468Z,16.05
2023-03-01T03:38:50.241Z,16.98
2023-03-01T03:39:13.092Z,17.05
2023-03-01T03:39:35.938Z,17.27
2023-03-01T03:39:58.835Z,16.48
2023-03-01T03:40:21.614Z,16.85
2023-03-01T03:40:46.140Z,16.40
2023-03-01T03:41:09.302Z,16.55
2023-03-01T03:41:32.072Z,16.13
2023-03-01T03:41:54.826Z,15.93
2023-03-01T03:42:17.517Z,16.02
2023-03-01T03:42:40.235Z,16.15
2023-03-01T03:43:03.083Z,17.15
2023-03-01T03:43:25.922Z,16.67
2023-03-01T03:43:50.096Z,17.25
2023-03-01T03:44:13.660Z,17.08
2023-03-01T03:44:38.638Z,17.38
2023-03-01T03:45:01.355Z,17.17
2023-03-01T03:45:24.022Z,17.77
2023-03-01T03:45:47.246Z,17.58
2023-03-01T03:46:10.506Z,17.17
2023-03-01T03:46:33.999Z,17.38
2023-03-01T03:46:56.940Z,16.77
2023-03-01T03:47:19.682Z,16.80
2023-03-01T03:47:42.479Z,17.08
2023-03-01T03:48:06.504Z,17.48
2023-03-01T03:48:29.323Z,17.45
2023-03-01T03:48:52.166Z,17.95
2023-03-01T03:49:14.898Z,17.65
2023-03-01T03:49:37.650Z,17.90
2023-03-01T03:50:00.445Z,18.13
2023-03-01T03:50:23.292Z,18.38
2023-03-01T03:50:49.304Z,18.00
2023-03-01T03:51:12.484Z,17.95
2023-03-01T03:51:35.206Z,17.80
2023-03-01T03:51:58.577Z,18.15
2023-03-01T03:52:21.330Z,18.30
2023-03-01T03:52:44.130Z,18.50
2023-03-01T03:53:08.227Z,18.23
2023-03-01T03:53:31.052Z,17.95
2023-03-01T03:53:53.776Z,18.38
2023-03-01T03:54:16.558Z,18.40
2023-03-01T03:54:39.451Z,18.70
2023-03-01T03:55:02.171Z,18.55
2023-03-01T03:55:29.168Z,18.25
2023-03-01T03:55:54.525Z,18.90
2023-03-01T03:56:17.176Z,19.65
2023-03-01T03:56:40.119Z,19.83
2023-03-01T03:57:04.769Z,19.13
2023-03-01T03:57:27.517Z,19.50
2023-03-01T03:57:55.381Z,20.20
2023-03-01T03:58:20.744Z,19.75
2023-03-01T03:58:43.667Z,19.40
2023-03-01T03:59:07.021Z,19.15
2023-03-01T03:59:29.921Z,19.65
2023-03-01T03:59:56.869Z,20.08
2023-03-01T04:00:20.520Z,18.77
2023-03-01T04:00:44.236Z,19.48
2023-03-01T04:01:07.073Z,19.58
2023-03-01T04:01:29.783Z,19.98
2023-03-01T04:01:52.753Z,19.17
2023-03-01T04:02:23.664Z,19.80
2023-03-01T04:02:46.649Z,19.30
2023-03-01T04:03:09.594Z,19.67
2023-03-01T04:03:33.286Z,20.13
2023-03-01T04:03:56.383Z,20.20
2023-03-01T04:04:20.023Z,19.08
2023-03-01T04:04:42.817Z,19.50
2023-03-01T04:05:06.617Z,19.42
2023-03-01T04:05:29.853Z,19.42
2023-03-01T04:05:52.629Z,19.48
2023-03-01T04:06:15.497Z,19.42
2023-03-01T04:06:38.441Z,19.25
2023-03-01T04:07:01.283Z,19.33
2023-03-01T04:07:24.066Z,19.83
2023-03-01T04:07:46.963Z,19.48
2023-03-01T04:08:12.329Z,20.48
2023-03-01T04:08:35.184Z,19.27
2023-03-01T04:08:59.387Z,19.85
2023-03-01T04:09:22.095Z,19.65
2023-03-01T04:09:44.858Z,19.88
2023-03-01T04:10:10.080Z,19.27
2023-03-01T04:10:34.621Z,19.95
2023-03-01T04:11:01.927Z,19.25
2023-03-01T04:11:27.565Z,18.83
2023-03-01T04:11:50.288Z,18.92
2023-03-01T04:12:14.097Z,19.23
2023-03-01T04:12:37.311Z,18.80
2023-03-01T04:13:00.015Z,19.48
2023-03-01T04:13:23.442Z,19.02
2023-03-01T04:13:46.177Z,19.85
2023-03-01T04:14:08.829Z,19.98
2023-03-01T04:14:31.682Z,19.83
2023-03-01T04:14:54.410Z,20.17
2023-03-01T04:15:18.825Z,20.48
2023-03-01T04:15:41.626Z,20.05
2023-03-01T04:16:04.778Z,20.55
2023-03-01T04:16:27.770Z,19.35
2023-03-01T04:16:50.613Z,19.23
2023-03-01T04:17:13.783Z,19.30
2023-03-01T04:17:36.570Z,19.15
2023-03-01T04:18:00.184Z,20.02
2023-03-01T04:18:23.867Z,19.20
2023-03-01T04:18:46.761Z,18.92
2023-03-01T04:19:10.901Z,19.70
2023-03-01T04:19:37.226Z,19.77
2023-03-01T04:20:00.017Z,19.40
2023-03-01T04:20:26.770Z,19.90
2023-03-01T04:20:49.507Z,19.35
2023-03-01T04:21:12.495Z,19.30
2023-03-01T04:21:35.207Z,20.23
2023-03-01T04:21:57.916Z,19.83
2023-03-01T04:22:20.887Z,18.83
2023-03-01T04:22:43.650Z,19.70
2023-03-01T04:23:14.732Z,19.40
2023-03-01T04:23:37.462Z,19.63
2023-03-01T04:24:00.173Z,19.40
2023-03-01T04:24:24.067Z,19.45
2023-03-01T04:24:46.846Z,19.85
2023-03-01T04:25:10.314Z,19.45
2023-03-01T04:25:33.027Z,19.52
2023-03-01T04:25:56.937Z,18.52
2023-03-01T04:26:20.346Z,19.40
2023-03-01T04:26:43.113Z,19.38
2023-03-01T04:27:05.796Z,19.77
2023-03-01T04:27:28.551Z,20.40
2023-03-01T04:27:51.304Z,20.27
2023-03-01T04:28:14.037Z,19.60
2023-03-01T04:28:38.174Z,19.20
2023-03-01T04:29:00.962Z,19.58
2023-03-01T04:29:23.745Z,19.45
2023-03-01T04:29:46.401Z,18.98
2023-03-01T04:30:11.326Z,19.50
2023-03-01T04:30:38.248Z,19.55
2023-03-01T04:31:14.078Z,19.05
2023-03-01T04:31:37.227Z,19.15
2023-03-01T04:32:00.296Z,19.63
2023-03-01T04:32:23.255Z,19.08
2023-03-01T04:32:46.096Z,18.85
2023-03-01T04:33:10.087Z,19.27
2023-03-01T04:33:32.794Z,19.20
2023-03-01T04:33:56.488Z,18.92
2023-03-01T04:34:19.248Z,19.67
2023-03-01T04:34:41.937Z,19.20
2023-03-01T04:35:05.783Z,19.55
2023-03-01T04:35:28.977Z,19.52
2023-03-01T04:35:51.987Z,19.05
2023-03-01T04:36:16.257Z,19.40
2023-03-01T04:36:41.214Z,19.50
2023-03-01T04:37:03.960Z,18.42
2023-03-01T04:37:26.746Z,18.38
2023-03-01T04:37:49.446Z,19.00
2023-03-01T04:38:12.246Z,19.17
2023-03-01T04:38:35.047Z,19.25
2023-03-01T04:38:57.771Z,19.02
2023-03-01T04:39:20.487Z,18.88
2023-03-01T04:39:46.742Z,19.08
2023-03-01T04:40:17.510Z,18.75
2023-03-01T04:40:40.215Z,19.02
2023-03-01T04:41:04.562Z,18.65
2023-03-01T04:41:27.455Z,19.42
2023-03-01T04:41:50.197Z,19.08
2023-03-01T04:42:12.919Z,18.48
2023-03-01T04:42:35.678Z,18.60
2023-03-01T04:42:58.553Z,18.98
2023-03-01T04:43:21.442Z,18.73
2023-03-01T04:43:44.165Z,18.90
2023-03-01T04:44:06.942Z,18.75
2023-03-01T04:44:29.722Z,18.15
2023-03-01T04:44:52.420Z,18.73
2023-03-01T04:45:15.267Z,18.92
2023-03-01T04:45:39.445Z,19.02
2023-03-01T04:46:04.073Z,18.52
2023-03-01T04:46:27.560Z,18.35
2023-03-01T04:46:51.298Z,18.30
2023-03-01T04:47:14.084Z,17.63
2023-03-01T04:47:39.332Z,17.15
2023-03-01T04:48:02.184Z,16.88
2023-03-01T04:48:24.868Z,16.95
2023-03-01T04:48:50.406Z,17.83
2023-03-01T04:49:13.786Z,18.10
2023-03-01T04:49:36.527Z,17.88
2023-03-01T04:49:59.244Z,17.75
2023-03-01T04:50:22.786Z,17.60
2023-03-01T04:50:46.560Z,17.88
2023-03-01T04:51:09.939Z,17.70
2023-03-01T04:51:33.692Z,18.05
2023-03-01T04:51:57.308Z,17.83
2023-03-01T04:52:20.146Z,17.77
2023-03-01T04:52:43.076Z,17.17
2023-03-01T04:53:06.087Z,17.42
2023-03-01T04:53:29.047Z,17.52
2023-03-01T04:53:51.831Z,17.73
2023-03-01T04:54:14.544Z,16.75
2023-03-01T04:54:37.358Z,17.58
2023-03-01T04:55:00.132Z,18.75
2023-03-01T04:55:22.959Z,17.80
2023-03-01T04:55:45.732Z,18.30
2023-03-01T04:56:08.514Z,18.10
2023-03-01T04:56:32.231Z,17.40
2023-03-01T04:56:55.289Z,17.55
2023-03-01T04:57:18.588Z,17.90
2023-03-01T04:57:41.317Z,18.00
2023-03-01T04:58:04.090Z,17.90
2023-03-01T04:58:27.506Z,18.02
2023-03-01T04:58:50.244Z,18.15
2023-03-01T04:59:13.706Z,17.83
2023-03-01T04:59:37.241Z,16.42
2023-03-01T04:59:59.941Z,17.00
2023-03-01T05:00:23.521Z,16.27
2023-03-01T05:00:47.745Z,16.00
2023-03-01T05:01:16.277Z,15.93
2023-03-01T05:01:39.713Z,15.98
2023-03-01T05:02:02.483Z,15.90
2023-03-01T05:02:27.978Z,15.27
2023-03-01T05:02:54.469Z,15.55
2023-03-01T05:03:19.548Z,15.98
2023-03-01T05:03:44.176Z,16.17
2023-03-01T05:04:06.985Z,15.52
2023-03-01T05:04:29.703Z,15.95
2023-03-01T05:04:53.001Z,16.08
2023-03-01T05:05:15.909Z,16.10
2023-03-01T05:05:39.681Z,16.02
2023-03-01T05:06:02.415Z,15.57
2023-03-01T05:06:25.223Z,16.23
2023-03-01T05:06:48.123Z,15.20
2023-03-01T05:07:10.879Z,14.75
2023-03-01T05:07:33.624Z,15.98
2023-03-01T05:07:57.812Z,15.95
2023-03-01T05:08:21.793Z,16.10
2023-03-01T05:08:44.587Z,15.82
2023-03-01T05:09:07.313Z,15.32
2023-03-01T05:09:30.092Z,15.98
2023-03-01T05:09:55.029Z,15.65